createdAt,value
2018-12-20T00:00:05.710Z,43.40
2018-12-20T00:01:05.684Z,42.20
2018-12-20T00:02:05.683Z,43.00
2018-12-20T00:03:05.696Z,43.30
2018-12-20T00:04:05.650Z,40.40
2018-12-20T00:05:05.838Z,41.20
2018-12-20T00:06:05.762Z,43.20
2018-12-20T00:07:05.656Z,42.80
2018-12-20T00:08:05.607Z,42.60
2018-12-20T00:09:05.611Z,42.60
2018-12-20T00:10:05.593Z,43.80
2018-12-20T00:11:05.581Z,43.50
2018-12-20T00:12:05.624Z,41.40
2018-12-20T00:13:05.570Z,42.80
2018-12-20T00:14:05.541Z,42.90
2018-12-20T00:15:05.530Z,43.70
2018-12-20T00:16:05.598Z,42.10
2018-12-20T00:17:05.516Z,42.80
2018-12-20T00:18:05.507Z,43.10
2018-12-20T00:19:05.487Z,44.80
2018-12-20T00:20:05.660Z,41.40
2018-12-20T00:21:05.527Z,43.50
2018-12-20T00:22:05.488Z,44.10
2018-12-20T00:23:05.520Z,43.10
2018-12-20T00:24:05.435Z,43.50
2018-12-20T00:25:05.421Z,44.50
2018-12-20T00:26:05.424Z,42.50
2018-12-20T00:27:05.588Z,43.90
2018-12-20T00:28:05.399Z,44.70
2018-12-20T00:29:05.564Z,44.30
2018-12-20T00:30:05.503Z,43.80
2018-12-20T00:31:05.468Z,44.60
2018-12-20T00:32:05.402Z,45.90
2018-12-20T00:33:05.348Z,43.60
2018-12-20T00:34:05.366Z,44.80
2018-12-20T00:35:05.334Z,45.30
2018-12-20T00:36:05.353Z,43.90
2018-12-20T00:37:05.420Z,44.20
2018-12-20T00:38:05.334Z,45.40
2018-12-20T00:39:05.411Z,45.70
2018-12-20T00:40:06.524Z,44.40
2018-12-20T00:41:05.318Z,45.40
2018-12-20T00:42:05.284Z,45.30
2018-12-20T00:43:05.237Z,44.60
2018-12-20T00:44:05.331Z,45.90
2018-12-20T00:45:05.204Z,45.80
2018-12-20T00:46:05.194Z,43.60
2018-12-20T00:47:05.227Z,47.10
2018-12-20T00:48:05.270Z,45.10
2018-12-20T00:49:05.162Z,45.70
2018-12-20T00:50:05.175Z,45.80
2018-12-20T00:51:05.139Z,47.00
2018-12-20T00:52:05.168Z,47.90
2018-12-20T00:53:05.127Z,45.50
2018-12-20T00:54:05.153Z,47.80
2018-12-20T00:55:05.105Z,46.40
2018-12-20T00:56:05.099Z,46.30
2018-12-20T00:57:05.190Z,48.90
2018-12-20T00:58:05.276Z,51.50
2018-12-20T00:59:05.066Z,48.20
2018-12-20T01:00:05.059Z,49.20
2018-12-20T01:01:05.034Z,50.10
2018-12-20T01:02:05.042Z,47.40
2018-12-20T01:03:05.069Z,48.10
2018-12-20T01:04:05.098Z,49.10
2018-12-20T01:05:04.989Z,51.20
2018-12-20T01:06:04.985Z,49.50
2018-12-20T01:07:05.092Z,50.40
2018-12-20T01:08:04.971Z,51.30
2018-12-20T01:09:05.061Z,51.00
2018-12-20T01:10:05.090Z,50.00
2018-12-20T01:11:04.925Z,54.70
2018-12-20T01:12:04.928Z,51.30
2018-12-20T01:13:04.950Z,49.30
2018-12-20T01:14:04.913Z,50.90
2018-12-20T01:15:04.912Z,50.20
2018-12-20T01:16:05.003Z,53.60
2018-12-20T01:17:04.880Z,51.20
2018-12-20T01:18:04.953Z,51.50
2018-12-20T01:19:04.991Z,52.60
2018-12-20T01:20:04.828Z,50.80
2018-12-20T01:21:04.830Z,52.70
2018-12-20T01:22:04.920Z,53.50
2018-12-20T01:23:04.859Z,51.80
2018-12-20T01:24:04.942Z,52.80
2018-12-20T01:25:04.896Z,51.40
2018-12-20T01:26:04.834Z,53.90
2018-12-20T01:27:04.756Z,52.80
2018-12-20T01:28:04.867Z,55.00
2018-12-20T01:29:04.769Z,52.70
2018-12-20T01:30:04.854Z,51.70
2018-12-20T01:31:04.711Z,55.10
2018-12-20T01:32:04.923Z,53.50
2018-12-20T01:33:04.691Z,52.70
2018-12-20T01:34:04.684Z,54.90
2018-12-20T01:35:04.692Z,55.60
2018-12-20T01:36:04.654Z,58.70
2018-12-20T01:37:04.748Z,52.20
2018-12-20T01:38:04.648Z,55.10
2018-12-20T01:39:04.707Z,55.20
2018-12-20T01:40:04.611Z,54.20
2018-12-20T01:41:04.602Z,54.20
2018-12-20T01:42:04.803Z,53.90
2018-12-20T01:43:04.757Z,57.40
2018-12-20T01:44:04.723Z,56.80
2018-12-20T01:45:04.682Z,57.00
2018-12-20T01:46:04.545Z,54.30
2018-12-20T01:47:04.535Z,56.10
2018-12-20T01:48:04.664Z,55.20
2018-12-20T01:49:04.661Z,57.70
2018-12-20T01:50:04.696Z,56.80
2018-12-20T01:51:04.543Z,56.30
2018-12-20T01:52:04.481Z,56.40
2018-12-20T01:53:04.651Z,55.10
2018-12-20T01:54:04.611Z,56.80
2018-12-20T01:55:04.602Z,56.70
2018-12-20T01:56:04.592Z,56.90
2018-12-20T01:57:04.664Z,59.20
2018-12-20T01:58:04.594Z,57.10
2018-12-20T01:59:04.520Z,56.10
2018-12-20T02:00:04.508Z,59.20
2018-12-20T02:01:04.385Z,60.00
2018-12-20T02:02:04.390Z,59.00
2018-12-20T02:03:04.373Z,61.40
2018-12-20T02:04:04.518Z,59.50
2018-12-20T02:05:04.413Z,61.00
2018-12-20T02:06:04.348Z,59.10
2018-12-20T02:07:04.323Z,61.90
2018-12-20T02:08:04.323Z,58.40
2018-12-20T02:09:04.314Z,60.50
2018-12-20T02:10:04.296Z,58.80
2018-12-20T02:11:04.396Z,61.10
2018-12-20T02:12:04.409Z,55.40
2018-12-20T02:13:04.317Z,59.90
2018-12-20T02:14:04.319Z,60.90
2018-12-20T02:15:04.349Z,61.20
2018-12-20T02:16:04.222Z,58.80
2018-12-20T02:17:04.269Z,60.50
2018-12-20T02:18:04.234Z,58.80
2018-12-20T02:19:04.263Z,60.60
2018-12-20T02:20:04.297Z,61.80
2018-12-20T02:21:04.425Z,58.70
2018-12-20T02:22:04.183Z,61.40
2018-12-20T02:23:04.392Z,59.40
2018-12-20T02:24:04.136Z,61.80
2018-12-20T02:25:04.138Z,59.00
2018-12-20T02:26:04.116Z,61.60
2018-12-20T02:27:04.107Z,63.20
2018-12-20T02:28:04.131Z,61.40
2018-12-20T02:29:04.244Z,61.80
2018-12-20T02:30:04.082Z,61.60
2018-12-20T02:31:04.127Z,62.10
2018-12-20T02:32:04.244Z,62.70
2018-12-20T02:33:04.165Z,65.00
2018-12-20T02:34:04.031Z,63.60
2018-12-20T02:35:05.044Z,62.70
2018-12-20T02:36:04.012Z,62.70
2018-12-20T02:37:04.021Z,65.10
2018-12-20T02:38:04.062Z,63.60
2018-12-20T02:39:04.001Z,61.60
2018-12-20T02:40:04.018Z,65.60
2018-12-20T02:41:04.963Z,61.40
2018-12-20T02:42:03.948Z,62.00
2018-12-20T02:43:04.121Z,63.90
2018-12-20T02:44:03.940Z,63.40
2018-12-20T02:45:10.861Z,63.30
2018-12-20T02:46:05.002Z,61.90
2018-12-20T02:47:03.984Z,62.90
2018-12-20T02:48:03.878Z,64.60
2018-12-20T02:49:03.961Z,61.50
2018-12-20T02:50:03.866Z,64.40
2018-12-20T02:51:03.998Z,61.70
2018-12-20T02:52:03.834Z,65.80
2018-12-20T02:53:03.824Z,65.20
2018-12-20T02:54:04.080Z,63.90
2018-12-20T02:55:03.873Z,63.00
2018-12-20T02:56:03.838Z,64.10
2018-12-20T02:57:03.782Z,64.50
2018-12-20T02:58:03.944Z,63.80
2018-12-20T02:59:03.900Z,65.80
2018-12-20T03:00:03.756Z,65.20
2018-12-20T03:01:03.802Z,65.30
2018-12-20T03:02:03.794Z,65.50
2018-12-20T03:03:03.718Z,64.80
2018-12-20T03:04:03.711Z,65.40
2018-12-20T03:05:03.696Z,65.90
2018-12-20T03:06:03.750Z,66.60
2018-12-20T03:07:03.673Z,63.10
2018-12-20T03:08:03.798Z,66.10
2018-12-20T03:09:03.653Z,65.90
2018-12-20T03:10:03.644Z,66.20
2018-12-20T03:11:03.665Z,65.40
2018-12-20T03:12:03.619Z,64.90
2018-12-20T03:13:03.621Z,62.90
2018-12-20T03:14:03.655Z,67.90
2018-12-20T03:15:03.587Z,64.40
2018-12-20T03:16:03.682Z,65.10
2018-12-20T03:17:03.650Z,64.50
2018-12-20T03:18:03.640Z,67.40
2018-12-20T03:19:03.552Z,65.50
2018-12-20T03:20:03.534Z,65.80
2018-12-20T03:21:03.663Z,65.60
2018-12-20T03:22:03.514Z,67.50
2018-12-20T03:23:03.613Z,71.70
2018-12-20T03:24:03.522Z,66.90
2018-12-20T03:25:03.480Z,67.80
2018-12-20T03:26:03.496Z,64.70
2018-12-20T03:27:03.466Z,66.40
2018-12-20T03:28:03.447Z,66.90
2018-12-20T03:29:03.440Z,69.50
2018-12-20T03:30:03.721Z,71.10
2018-12-20T03:31:03.424Z,63.30
2018-12-20T03:32:03.404Z,67.00
2018-12-20T03:33:03.628Z,68.00
2018-12-20T03:34:03.381Z,69.00
2018-12-20T03:35:03.377Z,64.40
2018-12-20T03:36:03.489Z,70.20
2018-12-20T03:37:03.397Z,71.10
2018-12-20T03:38:03.364Z,68.80
2018-12-20T03:39:03.474Z,68.70
2018-12-20T03:40:03.510Z,66.60
2018-12-20T03:41:03.581Z,70.00
2018-12-20T03:42:03.302Z,69.80
2018-12-20T03:43:03.314Z,67.70
2018-12-20T03:44:03.274Z,64.90
2018-12-20T03:45:03.459Z,68.40
2018-12-20T03:46:03.263Z,69.30
2018-12-20T03:47:03.390Z,68.90
2018-12-20T03:48:03.264Z,71.00
2018-12-20T03:49:03.220Z,74.20
2018-12-20T03:50:03.408Z,71.80
2018-12-20T03:51:03.272Z,69.00
2018-12-20T03:52:03.202Z,71.20
2018-12-20T03:53:03.180Z,70.80
2018-12-20T03:54:03.176Z,73.30
2018-12-20T03:55:03.253Z,68.50
2018-12-20T03:56:03.339Z,71.30
2018-12-20T03:57:03.201Z,70.30
2018-12-20T03:58:03.276Z,72.30
2018-12-20T03:59:03.174Z,71.10
2018-12-20T04:00:03.294Z,72.20
2018-12-20T04:01:03.100Z,69.30
2018-12-20T04:02:03.079Z,70.60
2018-12-20T04:03:03.372Z,71.40
2018-12-20T04:04:03.214Z,70.50
2018-12-20T04:05:03.054Z,70.70
2018-12-20T04:06:03.241Z,71.50
2018-12-20T04:07:03.025Z,75.50
2018-12-20T04:08:03.314Z,69.70
2018-12-20T04:09:03.227Z,70.90
2018-12-20T04:10:03.281Z,74.30
2018-12-20T04:11:02.997Z,69.30
2018-12-20T04:12:03.144Z,70.30
2018-12-20T04:13:03.111Z,67.80
2018-12-20T04:14:03.149Z,74.30
2018-12-20T04:15:02.942Z,71.60
2018-12-20T04:16:02.938Z,73.30
2018-12-20T04:17:02.919Z,72.50
2018-12-20T04:18:03.062Z,73.10
2018-12-20T04:19:03.014Z,69.20
2018-12-20T04:20:02.883Z,74.50
2018-12-20T04:21:02.899Z,70.20
2018-12-20T04:22:03.067Z,71.70
2018-12-20T04:23:02.858Z,73.50
2018-12-20T04:24:02.856Z,75.70
2018-12-20T04:25:02.850Z,74.10
2018-12-20T04:26:02.819Z,69.40
2018-12-20T04:27:02.930Z,74.40
2018-12-20T04:28:02.954Z,73.10
2018-12-20T04:29:02.786Z,73.40
2018-12-20T04:30:02.779Z,73.30
2018-12-20T04:31:02.822Z,73.80
2018-12-20T04:32:02.778Z,76.10
2018-12-20T04:33:02.811Z,73.60
2018-12-20T04:34:03.019Z,74.70
2018-12-20T04:35:02.770Z,73.90
2018-12-20T04:36:02.751Z,72.10
2018-12-20T04:37:02.905Z,74.60
2018-12-20T04:38:02.693Z,72.60
2018-12-20T04:39:02.678Z,77.40
2018-12-20T04:40:02.917Z,75.20
2018-12-20T04:41:02.727Z,75.40
2018-12-20T04:42:02.656Z,77.80
2018-12-20T04:43:02.632Z,73.00
2018-12-20T04:44:02.626Z,70.80
2018-12-20T04:45:02.933Z,75.30
2018-12-20T04:46:02.883Z,79.40
2018-12-20T04:47:02.727Z,73.20
2018-12-20T04:48:02.613Z,75.60
2018-12-20T04:49:02.664Z,71.70
2018-12-20T04:50:02.675Z,74.00
2018-12-20T04:51:02.838Z,71.80
2018-12-20T04:52:02.758Z,74.50
2018-12-20T04:53:02.786Z,73.50
2018-12-20T04:54:02.778Z,73.50
2018-12-20T04:55:02.502Z,70.60
2018-12-20T04:56:02.853Z,73.80
2018-12-20T04:57:02.493Z,69.90
2018-12-20T04:58:02.672Z,74.10
2018-12-20T04:59:02.605Z,72.20
2018-12-20T05:00:02.451Z,75.20
2018-12-20T05:01:02.488Z,72.70
2018-12-20T05:02:02.648Z,73.00
2018-12-20T05:03:02.635Z,77.30
2018-12-20T05:04:02.505Z,75.30
2018-12-20T05:05:02.686Z,73.50
2018-12-20T05:06:02.390Z,71.30
2018-12-20T05:07:02.421Z,75.80
2018-12-20T05:08:02.364Z,71.20
2018-12-20T05:09:02.440Z,74.10
2018-12-20T05:10:02.550Z,71.20
2018-12-20T05:11:02.342Z,74.10
2018-12-20T05:12:02.506Z,72.10
2018-12-20T05:13:02.376Z,73.40
2018-12-20T05:14:02.685Z,71.60
2018-12-20T05:15:02.485Z,74.50
2018-12-20T05:16:02.474Z,73.50
2018-12-20T05:17:02.541Z,75.20
2018-12-20T05:18:02.405Z,75.60
2018-12-20T05:19:02.264Z,74.80
2018-12-20T05:20:02.425Z,78.50
2018-12-20T05:21:02.418Z,69.50
2018-12-20T05:22:02.268Z,71.40
2018-12-20T05:23:02.200Z,72.30
2018-12-20T05:24:02.189Z,71.20
2018-12-20T05:25:02.182Z,72.60
2018-12-20T05:26:02.398Z,73.60
2018-12-20T05:27:02.166Z,76.50
2018-12-20T05:28:02.145Z,71.60
2018-12-20T05:29:02.227Z,71.10
2018-12-20T05:30:02.302Z,75.00
2018-12-20T05:31:02.323Z,71.10
2018-12-20T05:32:02.135Z,69.50
2018-12-20T05:33:02.092Z,72.60
2018-12-20T05:34:02.082Z,72.90
2018-12-20T05:35:02.194Z,70.90
2018-12-20T05:36:02.373Z,75.20
2018-12-20T05:37:02.068Z,72.30
2018-12-20T05:40:50.329Z,68.70
2018-12-20T05:41:28.624Z,68.90
2018-12-20T05:42:28.825Z,72.20
2018-12-20T05:43:28.740Z,67.70
2018-12-20T05:44:28.763Z,73.30
2018-12-20T05:45:28.706Z,69.60
2018-12-20T05:46:28.541Z,71.10
2018-12-20T05:47:28.745Z,70.50
2018-12-20T05:48:28.618Z,69.60
2018-12-20T05:49:28.535Z,71.20
2018-12-20T05:50:28.484Z,68.10
2018-12-20T05:51:28.536Z,71.00
2018-12-20T05:52:28.700Z,69.90
2018-12-20T05:53:30.196Z,73.50
2018-12-20T05:54:28.485Z,73.80
2018-12-20T05:55:28.600Z,71.60
2018-12-20T05:56:28.424Z,75.30
2018-12-20T05:57:28.517Z,72.10
2018-12-20T05:58:28.577Z,75.40
2018-12-20T05:59:28.487Z,74.40
2018-12-20T06:00:28.374Z,71.70
2018-12-20T06:01:28.626Z,69.80
2018-12-20T06:02:28.552Z,77.50
2018-12-20T06:03:28.385Z,72.50
2018-12-20T06:04:28.535Z,72.10
2018-12-20T06:05:28.351Z,76.60
2018-12-20T06:06:28.310Z,77.00
2018-12-20T06:07:28.550Z,74.60
2018-12-20T06:08:28.289Z,78.70
2018-12-20T06:09:28.295Z,75.30
2018-12-20T06:10:28.301Z,71.90
2018-12-20T06:11:28.261Z,72.70
2018-12-20T06:12:28.259Z,73.70
2018-12-20T06:13:28.248Z,71.20
2018-12-20T06:14:28.390Z,70.30
2018-12-20T06:15:28.215Z,73.10
2018-12-20T06:16:28.209Z,70.30
2018-12-20T06:17:35.540Z,71.30
2018-12-20T06:18:28.205Z,72.00
2018-12-20T06:19:28.208Z,68.70
2018-12-20T06:20:28.461Z,70.40
2018-12-20T06:21:28.154Z,70.40
2018-12-20T06:22:28.704Z,70.50
2018-12-20T06:23:28.131Z,71.60
2018-12-20T06:24:28.118Z,73.30
2018-12-20T06:25:28.107Z,73.10
2018-12-20T06:26:28.099Z,69.40
2018-12-20T06:27:28.091Z,70.30
2018-12-20T06:28:28.088Z,71.10
2018-12-20T06:29:28.065Z,69.00
2018-12-20T06:30:28.059Z,69.10
2018-12-20T06:31:28.048Z,74.10
2018-12-20T06:32:28.035Z,71.50
2018-12-20T06:33:28.033Z,68.50
2018-12-20T06:34:28.015Z,71.00
2018-12-20T06:35:28.002Z,69.20
2018-12-20T06:36:27.993Z,70.10
2018-12-20T06:37:27.980Z,68.50
2018-12-20T06:38:27.982Z,68.00
2018-12-20T06:39:27.959Z,67.40
2018-12-20T06:40:27.948Z,68.60
2018-12-20T06:41:27.940Z,67.50
2018-12-20T06:42:27.931Z,69.10
2018-12-20T06:43:27.925Z,69.30
2018-12-20T06:44:27.906Z,70.30
2018-12-20T06:45:27.895Z,69.40
2018-12-20T06:46:27.885Z,70.60
2018-12-20T06:47:27.874Z,68.90
2018-12-20T06:48:27.873Z,67.10
2018-12-20T06:49:27.855Z,67.60
2018-12-20T06:50:27.842Z,68.20
2018-12-20T06:51:27.831Z,68.10
2018-12-20T06:52:27.825Z,69.50
2018-12-20T06:53:27.820Z,73.20
2018-12-20T06:54:27.799Z,69.10
2018-12-20T06:55:27.789Z,69.80
2018-12-20T06:56:27.782Z,68.60
2018-12-20T06:57:29.553Z,67.40
2018-12-20T06:58:27.770Z,70.70
2018-12-20T06:59:27.745Z,69.40
2018-12-20T07:00:27.735Z,65.80
2018-12-20T07:01:27.726Z,70.30
2018-12-20T07:02:27.723Z,66.50
2018-12-20T07:03:27.709Z,69.60
2018-12-20T07:04:27.694Z,68.30
2018-12-20T07:05:27.681Z,69.10
2018-12-20T07:06:27.672Z,68.80
2018-12-20T07:07:27.662Z,72.80
2018-12-20T07:08:27.659Z,68.10
2018-12-20T07:09:27.640Z,68.00
2018-12-20T07:10:27.628Z,70.30
2018-12-20T07:11:27.618Z,71.40
2018-12-20T07:12:27.606Z,66.80
2018-12-20T07:13:27.604Z,69.40
2018-12-20T07:14:27.589Z,71.60
2018-12-20T07:15:27.576Z,69.40
2018-12-20T07:16:29.437Z,65.10
2018-12-20T07:17:27.555Z,69.70
2018-12-20T07:18:27.549Z,72.20
2018-12-20T07:19:27.532Z,69.80
2018-12-20T07:20:27.520Z,68.00
2018-12-20T07:21:27.511Z,70.40
2018-12-20T07:22:27.500Z,66.50
2018-12-20T07:23:27.499Z,66.70
2018-12-20T07:24:27.480Z,72.30
2018-12-20T07:25:27.470Z,68.90
2018-12-20T07:26:27.458Z,71.00
2018-12-20T07:27:27.452Z,71.60
2018-12-20T07:28:27.446Z,68.00
2018-12-20T07:29:27.425Z,73.40
2018-12-20T07:30:27.414Z,68.20
2018-12-20T07:31:27.407Z,69.50
2018-12-20T07:32:27.394Z,73.00
2018-12-20T07:33:27.392Z,68.10
2018-12-20T07:34:27.373Z,68.20
2018-12-20T07:35:27.366Z,70.40
2018-12-20T07:36:27.352Z,69.40
2018-12-20T07:37:27.345Z,70.50
2018-12-20T07:38:27.342Z,71.40
2018-12-20T07:39:27.321Z,70.80
2018-12-20T07:40:27.310Z,71.20
2018-12-20T07:41:27.302Z,68.10
2018-12-20T07:42:27.292Z,70.00
2018-12-20T07:43:27.287Z,71.20
2018-12-20T07:44:27.267Z,68.80
2018-12-20T07:45:27.257Z,72.30
2018-12-20T07:46:27.246Z,66.20
2018-12-20T07:47:27.240Z,69.80
2018-12-20T07:48:32.052Z,71.20
2018-12-20T07:49:28.216Z,70.50
2018-12-20T07:50:27.201Z,72.50
2018-12-20T07:51:27.191Z,70.30
2018-12-20T07:52:27.183Z,72.20
2018-12-20T07:53:27.202Z,70.60
2018-12-20T07:54:27.164Z,69.40
2018-12-20T07:55:27.196Z,70.40
2018-12-20T07:56:27.138Z,70.90
2018-12-20T07:57:27.133Z,70.60
2018-12-20T07:58:27.118Z,71.10
2018-12-20T07:59:27.117Z,70.30
2018-12-20T08:00:27.112Z,70.30
2018-12-20T08:01:27.083Z,68.30
2018-12-20T08:02:27.074Z,68.90
2018-12-20T08:03:27.063Z,75.00
2018-12-20T08:04:27.066Z,70.70
2018-12-20T08:05:27.041Z,72.20
2018-12-20T08:06:27.032Z,69.30
2018-12-20T08:07:27.023Z,68.80
2018-12-20T08:08:27.011Z,70.10
2018-12-20T08:09:27.005Z,71.80
2018-12-20T08:10:26.989Z,72.70
2018-12-20T08:11:26.976Z,71.40
2018-12-20T08:12:26.972Z,68.20
2018-12-20T08:13:26.957Z,70.60
2018-12-20T08:14:26.952Z,70.90
2018-12-20T08:15:26.934Z,70.50
2018-12-20T08:16:26.924Z,72.00
2018-12-20T08:17:26.916Z,70.90
2018-12-20T08:18:26.902Z,67.60
2018-12-20T08:19:26.902Z,67.00
2018-12-20T08:20:26.879Z,69.40
2018-12-20T08:21:26.876Z,71.90
2018-12-20T08:22:26.865Z,70.60
2018-12-20T08:23:26.849Z,69.20
2018-12-20T08:24:26.850Z,71.00
2018-12-20T08:25:26.827Z,73.60
2018-12-20T08:26:26.817Z,69.10
2018-12-20T08:27:26.812Z,70.80
2018-12-20T08:28:26.797Z,71.20
2018-12-20T08:29:26.900Z,70.80
2018-12-20T08:30:26.773Z,69.40
2018-12-20T08:31:26.763Z,68.90
2018-12-20T08:32:26.754Z,70.00
2018-12-20T08:33:26.741Z,68.60
2018-12-20T08:34:26.740Z,68.10
2018-12-20T08:35:26.721Z,67.20
2018-12-20T08:36:26.710Z,65.80
2018-12-20T08:37:26.699Z,63.50
2018-12-20T08:38:26.688Z,64.70
2018-12-20T08:39:26.687Z,65.90
2018-12-20T08:40:26.666Z,65.70
2018-12-20T08:41:26.664Z,66.00
2018-12-20T08:42:26.644Z,66.90
2018-12-20T08:43:26.636Z,64.50
2018-12-20T08:44:26.631Z,61.10
2018-12-20T08:45:26.612Z,64.40
2018-12-20T08:46:26.604Z,64.80
2018-12-20T08:47:26.600Z,69.90
2018-12-20T08:48:26.581Z,64.30
2018-12-20T08:49:26.578Z,61.60
2018-12-20T08:50:26.558Z,61.90
2018-12-20T08:51:26.550Z,59.90
2018-12-20T08:52:26.542Z,63.60
2018-12-20T08:53:26.529Z,62.80
2018-12-20T08:54:26.527Z,63.10
2018-12-20T08:55:26.508Z,62.20
2018-12-20T08:56:26.498Z,62.50
2018-12-20T08:57:26.489Z,62.60
2018-12-20T08:58:26.474Z,63.40
2018-12-20T08:59:26.477Z,62.60
2018-12-20T09:00:26.459Z,61.10
2018-12-20T09:01:26.443Z,62.10
2018-12-20T09:02:26.441Z,64.40
2018-12-20T09:03:26.423Z,62.80
2018-12-20T09:04:26.419Z,62.60
2018-12-20T09:05:26.401Z,59.60
2018-12-20T09:06:26.390Z,61.30
2018-12-20T09:07:26.383Z,60.00
2018-12-20T09:08:26.376Z,61.80
2018-12-20T09:09:26.471Z,59.70
2018-12-20T09:10:26.349Z,60.60
2018-12-20T09:11:26.338Z,62.80
2018-12-20T09:12:26.327Z,61.80
2018-12-20T09:13:26.318Z,61.50
2018-12-20T09:14:26.309Z,60.50
2018-12-20T09:15:26.305Z,58.40
2018-12-20T09:16:26.287Z,60.30
2018-12-20T09:17:26.280Z,60.40
2018-12-20T09:18:26.265Z,59.40
2018-12-20T09:19:26.254Z,63.40
2018-12-20T09:20:32.722Z,58.20
2018-12-20T09:21:27.230Z,57.90
2018-12-20T09:22:26.222Z,62.90
2018-12-20T09:23:26.213Z,62.20
2018-12-20T09:24:26.203Z,59.60
2018-12-20T09:25:26.198Z,61.20
2018-12-20T09:26:26.187Z,63.50
2018-12-20T09:27:26.194Z,59.90
2018-12-20T09:28:26.160Z,59.60
2018-12-20T09:29:26.148Z,61.50
2018-12-20T09:30:30.440Z,61.80
2018-12-20T09:31:26.129Z,60.40
2018-12-20T09:32:26.116Z,61.00
2018-12-20T09:33:26.106Z,60.40
2018-12-20T09:34:26.098Z,61.20
2018-12-20T09:35:26.093Z,60.40
2018-12-20T09:36:26.080Z,60.40
2018-12-20T09:37:26.063Z,58.60
2018-12-20T09:38:26.053Z,60.70
2018-12-20T09:39:26.045Z,58.90
2018-12-20T09:40:26.041Z,62.20
2018-12-20T09:41:26.024Z,59.60
2018-12-20T09:42:26.012Z,60.30
2018-12-20T09:43:26.001Z,61.10
2018-12-20T09:44:25.998Z,58.80
2018-12-20T09:45:25.989Z,61.10
2018-12-20T09:46:25.972Z,61.90
2018-12-20T09:47:25.961Z,61.20
2018-12-20T09:48:25.949Z,60.80
2018-12-20T09:49:25.938Z,61.10
2018-12-20T09:50:25.943Z,62.40
2018-12-20T09:51:25.917Z,59.40
2018-12-20T09:52:25.907Z,58.90
2018-12-20T09:53:25.897Z,61.00
2018-12-20T09:54:25.888Z,61.40
2018-12-20T09:55:25.883Z,58.40
2018-12-20T09:56:25.869Z,61.40
2018-12-20T09:57:25.854Z,59.50
2018-12-20T09:58:25.846Z,60.70
2018-12-20T09:59:25.835Z,59.00
2018-12-20T10:00:25.833Z,59.30
2018-12-20T10:01:25.812Z,61.00
2018-12-20T10:02:25.808Z,56.60
2018-12-20T10:03:25.791Z,56.80
2018-12-20T10:04:25.780Z,58.30
2018-12-20T10:05:25.779Z,57.10
2018-12-20T10:06:25.765Z,61.40
2018-12-20T10:07:25.759Z,58.80
2018-12-20T10:08:25.738Z,59.70
2018-12-20T10:09:25.732Z,58.30
2018-12-20T10:10:25.729Z,58.50
2018-12-20T10:11:25.708Z,58.40
2018-12-20T10:12:25.695Z,56.70
2018-12-20T10:13:25.770Z,56.20
2018-12-20T10:14:25.679Z,58.30
2018-12-20T10:15:25.671Z,57.00
2018-12-20T10:16:25.655Z,58.90
2018-12-20T10:17:25.642Z,56.00
2018-12-20T10:18:25.640Z,58.00
2018-12-20T10:19:25.627Z,55.90
2018-12-20T10:20:25.625Z,57.50
2018-12-20T10:21:25.602Z,57.70
2018-12-20T10:22:25.589Z,55.20
2018-12-20T10:23:25.581Z,56.70
2018-12-20T10:24:25.568Z,57.90
2018-12-20T10:25:25.566Z,57.80
2018-12-20T10:26:25.547Z,57.90
2018-12-20T10:27:31.314Z,55.80
2018-12-20T10:28:26.526Z,55.60
2018-12-20T10:29:25.518Z,58.60
2018-12-20T10:30:25.513Z,59.30
2018-12-20T10:31:25.496Z,56.40
2018-12-20T10:32:25.486Z,57.20
2018-12-20T10:33:25.484Z,57.00
2018-12-20T10:34:25.464Z,57.00
2018-12-20T10:35:25.461Z,55.50
2018-12-20T10:36:25.441Z,54.40
2018-12-20T10:37:25.434Z,56.80
2018-12-20T10:38:25.419Z,57.40
2018-12-20T10:39:25.414Z,55.80
2018-12-20T10:40:25.427Z,54.30
2018-12-20T10:41:25.386Z,54.70
2018-12-20T10:42:25.377Z,55.20
2018-12-20T10:43:25.366Z,54.10
2018-12-20T10:44:25.356Z,54.30
2018-12-20T10:45:25.349Z,54.00
2018-12-20T10:46:25.344Z,53.80
2018-12-20T10:47:29.217Z,57.70
2018-12-20T10:48:25.313Z,54.00
2018-12-20T10:49:25.306Z,54.80
2018-12-20T10:50:25.291Z,54.20
2018-12-20T10:51:25.288Z,56.10
2018-12-20T10:52:25.269Z,58.50
2018-12-20T10:53:25.314Z,55.70
2018-12-20T10:54:25.250Z,54.40
2018-12-20T10:55:25.238Z,54.20
2018-12-20T10:56:25.234Z,53.90
2018-12-20T10:57:25.214Z,53.60
2018-12-20T10:58:25.206Z,55.70
2018-12-20T10:59:25.204Z,54.70
2018-12-20T11:00:25.183Z,52.60
2018-12-20T11:01:25.179Z,54.50
2018-12-20T11:02:25.233Z,54.80
2018-12-20T11:03:25.149Z,53.80
2018-12-20T11:04:25.144Z,53.90
2018-12-20T11:05:25.128Z,52.60
2018-12-20T11:06:25.130Z,54.60
2018-12-20T11:07:25.112Z,52.30
2018-12-20T11:08:25.096Z,51.80
2018-12-20T11:09:25.087Z,55.20
2018-12-20T11:10:25.075Z,51.00
2018-12-20T11:11:25.074Z,51.70
2018-12-20T11:12:25.056Z,52.80
2018-12-20T11:13:25.046Z,55.00
2018-12-20T11:14:25.031Z,52.00
2018-12-20T11:15:25.021Z,50.70
2018-12-20T11:16:25.017Z,51.80
2018-12-20T11:17:25.001Z,54.70
2018-12-20T11:18:24.990Z,54.60
2018-12-20T11:19:24.977Z,52.30
2018-12-20T11:20:24.966Z,53.00
2018-12-20T11:21:24.963Z,52.80
2018-12-20T11:22:24.948Z,53.50
2018-12-20T11:23:24.939Z,54.80
2018-12-20T11:24:24.923Z,53.10
2018-12-20T11:25:24.914Z,54.10
2018-12-20T11:26:24.912Z,53.70
2018-12-20T11:27:24.890Z,53.70
2018-12-20T11:28:24.881Z,50.70
2018-12-20T11:29:24.871Z,52.00
2018-12-20T11:30:24.859Z,52.10
2018-12-20T11:31:24.859Z,53.20
2018-12-20T11:32:24.838Z,55.20
2018-12-20T11:33:24.827Z,52.60
2018-12-20T11:34:24.819Z,54.70
2018-12-20T11:35:24.805Z,52.20
2018-12-20T11:36:24.823Z,51.70
2018-12-20T11:37:24.785Z,51.70
2018-12-20T11:38:24.772Z,51.70
2018-12-20T11:39:24.762Z,52.80
2018-12-20T11:40:24.752Z,53.70
2018-12-20T11:41:24.750Z,52.30
2018-12-20T11:42:24.739Z,54.30
2018-12-20T11:43:24.718Z,53.60
2018-12-20T11:44:24.711Z,54.20
2018-12-20T11:45:24.700Z,54.10
2018-12-20T11:46:24.686Z,52.40
2018-12-20T11:47:24.683Z,52.40
2018-12-20T11:48:24.665Z,52.00
2018-12-20T11:49:24.655Z,50.80
2018-12-20T11:50:24.645Z,52.10
2018-12-20T11:51:24.632Z,51.10
2018-12-20T11:52:24.634Z,51.80
2018-12-20T11:53:24.611Z,52.60
2018-12-20T11:54:24.601Z,53.00
2018-12-20T11:55:24.594Z,50.80
2018-12-20T11:56:24.579Z,49.70
2018-12-20T11:57:24.575Z,49.60
2018-12-20T11:58:24.557Z,52.90
2018-12-20T11:59:24.559Z,51.50
2018-12-20T12:00:24.538Z,52.00
2018-12-20T12:01:24.524Z,50.90
2018-12-20T12:02:24.890Z,52.90
2018-12-20T12:03:24.504Z,52.50
2018-12-20T12:04:24.494Z,51.30
2018-12-20T12:05:24.484Z,50.80
2018-12-20T12:06:24.471Z,50.30
2018-12-20T12:07:24.467Z,49.30
2018-12-20T12:08:24.449Z,50.90
2018-12-20T12:09:24.438Z,52.00
2018-12-20T12:10:24.434Z,51.30
2018-12-20T12:11:24.417Z,49.80
2018-12-20T12:12:24.416Z,49.80
2018-12-20T12:13:24.401Z,49.40
2018-12-20T12:14:24.385Z,50.10
2018-12-20T12:15:26.532Z,49.80
2018-12-20T12:16:24.362Z,50.00
2018-12-20T12:17:24.379Z,47.50
2018-12-20T12:18:24.340Z,48.40
2018-12-20T12:19:24.331Z,49.10
2018-12-20T12:20:24.320Z,48.80
2018-12-20T12:21:24.309Z,49.40
2018-12-20T12:22:24.298Z,51.30
2018-12-20T12:23:24.296Z,50.00
2018-12-20T12:24:24.276Z,51.40
2018-12-20T12:25:24.265Z,52.00
2018-12-20T12:26:24.254Z,50.70
2018-12-20T12:27:24.245Z,51.50
2018-12-20T12:28:24.242Z,48.80
2018-12-20T12:29:24.225Z,47.50
2018-12-20T12:30:24.217Z,48.40
2018-12-20T12:31:24.202Z,48.80
2018-12-20T12:32:24.194Z,48.40
2018-12-20T12:33:24.190Z,49.90
2018-12-20T12:34:24.171Z,49.70
2018-12-20T12:35:24.163Z,46.90
2018-12-20T12:36:24.150Z,46.70
2018-12-20T12:37:24.138Z,49.20
2018-12-20T12:38:24.137Z,48.30
2018-12-20T12:39:24.120Z,50.70
2018-12-20T12:40:24.180Z,49.90
2018-12-20T12:41:24.098Z,48.90
2018-12-20T12:42:24.085Z,48.60
2018-12-20T12:43:24.083Z,47.70
2018-12-20T12:44:24.065Z,47.90
2018-12-20T12:45:24.052Z,50.10
2018-12-20T12:46:24.043Z,48.50
2018-12-20T12:47:24.032Z,48.40
2018-12-20T12:48:24.032Z,48.90
2018-12-20T12:49:24.212Z,48.70
2018-12-20T12:50:24.005Z,46.70
2018-12-20T12:51:23.990Z,49.70
2018-12-20T12:52:23.979Z,48.50
2018-12-20T12:53:23.980Z,48.10
2018-12-20T12:54:23.957Z,47.00